sensor_id;sensor_type;location;lat;lon;timestamp;pressure;altitude;pressure_sealevel;temperature;humidity
35226;BME280;21813;49.686;21.766;2023-02-12T00:01:12;99392.94;;;-0.25;100.00
35226;BME280;21813;49.686;21.766;2023-02-12T00:03:44;99394.56;;;-0.23;100.00
35226;BME280;21813;49.686;21.766;2023-02-12T00:06:11;99388.63;;;-0.23;100.00
35226;BME280;21813;49.686;21.766;2023-02-12T00:08:38;99399.69;;;-0.21;100.00
35226;BME280;21813;49.686;21.766;2023-02-12T00:11:21;99409.00;;;-0.17;100.00
35226;BME280;21813;49.686;21.766;2023-02-12T00:13:47;99418.34;;;-0.15;100.00
35226;BME280;21813;49.686;21.766;2023-02-12T00:16:16;99414.94;;;-0.15;100.00
35226;BME280;21813;49.686;21.766;2023-02-12T00:18:43;99429.38;;;-0.13;100.00
35226;BME280;21813;49.686;21.766;2023-02-12T00:21:21;99422.66;;;-0.17;100.00
35226;BME280;21813;49.686;21.766;2023-02-12T00:23:47;99425.09;;;-0.11;100.00
35226;BME280;21813;49.686;21.766;2023-02-12T00:26:17;99429.38;;;-0.11;100.00
35226;BME280;21813;49.686;21.766;2023-02-12T00:28:43;99425.13;;;-0.12;100.00
35226;BME280;21813;49.686;21.766;2023-02-12T00:31:18;99424.19;;;-0.08;100.00
35226;BME280;21813;49.686;21.766;2023-02-12T00:33:46;99421.69;;;-0.11;100.00
35226;BME280;21813;49.686;21.766;2023-02-12T00:36:21;99425.03;;;-0.09;100.00
35226;BME280;21813;49.686;21.766;2023-02-12T00:38:51;99415.69;;;-0.10;100.00
35226;BME280;21813;49.686;21.766;2023-02-12T00:41:22;99411.41;;;-0.10;100.00
35226;BME280;21813;49.686;21.766;2023-02-12T00:43:50;99419.81;;;-0.05;100.00
35226;BME280;21813;49.686;21.766;2023-02-12T00:46:33;99419.03;;;-0.07;100.00
35226;BME280;21813;49.686;21.766;2023-02-12T00:49:00;99428.34;;;-0.04;100.00
35226;BME280;21813;49.686;21.766;2023-02-12T00:51:27;99433.44;;;-0.01;100.00
35226;BME280;21813;49.686;21.766;2023-02-12T00:53:53;99431.81;;;-0.05;100.00
35226;BME280;21813;49.686;21.766;2023-02-12T00:56:21;99441.03;;;0.04;100.00
35226;BME280;21813;49.686;21.766;2023-02-12T00:58:50;99429.94;;;0.03;100.00
35226;BME280;21813;49.686;21.766;2023-02-12T01:01:18;99423.91;;;0.06;100.00
35226;BME280;21813;49.686;21.766;2023-02-12T01:03:45;99423.03;;;0.05;100.00
35226;BME280;21813;49.686;21.766;2023-02-12T01:06:11;99429.81;;;0.09;100.00
35226;BME280;21813;49.686;21.766;2023-02-12T01:08:37;99424.69;;;0.09;100.00
35226;BME280;21813;49.686;21.766;2023-02-12T01:11:05;99426.34;;;0.10;100.00
35226;BME280;21813;49.686;21.766;2023-02-12T01:13:32;99434.78;;;0.15;100.00
35226;BME280;21813;49.686;21.766;2023-02-12T01:18:38;99431.38;;;0.16;100.00
35226;BME280;21813;49.686;21.766;2023-02-12T01:21:15;99439.72;;;0.24;100.00
35226;BME280;21813;49.686;21.766;2023-02-12T01:23:42;99441.44;;;0.25;100.00
35226;BME280;21813;49.686;21.766;2023-02-12T01:26:08;99447.22;;;0.33;100.00
35226;BME280;21813;49.686;21.766;2023-02-12T01:28:38;99454.81;;;0.38;100.00
35226;BME280;21813;49.686;21.766;2023-02-12T01:31:16;99452.25;;;0.38;100.00
35226;BME280;21813;49.686;21.766;2023-02-12T01:33:43;99451.34;;;0.40;100.00
35226;BME280;21813;49.686;21.766;2023-02-12T01:36:14;99458.03;;;0.48;100.00
35226;BME280;21813;49.686;21.766;2023-02-12T01:38:40;99449.38;;;0.52;100.00
35226;BME280;21813;49.686;21.766;2023-02-12T01:41:09;99452.69;;;0.57;100.00
35226;BME280;21813;49.686;21.766;2023-02-12T01:43:38;99466.16;;;0.66;100.00
35226;BME280;21813;49.686;21.766;2023-02-12T01:46:07;99455.03;;;0.67;100.00
35226;BME280;21813;49.686;21.766;2023-02-12T01:48:45;99461.66;;;0.77;100.00
35226;BME280;21813;49.686;21.766;2023-02-12T01:51:17;99459.75;;;0.84;100.00
35226;BME280;21813;49.686;21.766;2023-02-12T01:53:50;99478.34;;;0.94;100.00
35226;BME280;21813;49.686;21.766;2023-02-12T01:56:22;99476.63;;;0.94;100.00
35226;BME280;21813;49.686;21.766;2023-02-12T01:58:50;99469.78;;;0.95;100.00
35226;BME280;21813;49.686;21.766;2023-02-12T02:01:27;99482.50;;;0.99;100.00
35226;BME280;21813;49.686;21.766;2023-02-12T02:08:08;99482.31;;;1.07;100.00
35226;BME280;21813;49.686;21.766;2023-02-12T02:10:37;99497.56;;;1.14;100.00
35226;BME280;21813;49.686;21.766;2023-02-12T02:13:03;99495.03;;;1.13;100.00
35226;BME280;21813;49.686;21.766;2023-02-12T02:16:22;99502.69;;;1.14;100.00
35226;BME280;21813;49.686;21.766;2023-02-12T02:18:57;99493.31;;;1.13;100.00
35226;BME280;21813;49.686;21.766;2023-02-12T02:24:13;99510.34;;;1.16;100.00
35226;BME280;21813;49.686;21.766;2023-02-12T02:32:31;99536.72;;;1.22;100.00
35226;BME280;21813;49.686;21.766;2023-02-12T02:35:09;99535.91;;;1.20;100.00
35226;BME280;21813;49.686;21.766;2023-02-12T02:41:17;99548.56;;;1.29;100.00
35226;BME280;21813;49.686;21.766;2023-02-12T02:43:32;99549.34;;;1.31;100.00
35226;BME280;21813;49.686;21.766;2023-02-12T02:46:16;99561.28;;;1.34;100.00
35226;BME280;21813;49.686;21.766;2023-02-12T02:49:05;99551.78;;;1.38;100.00
35226;BME280;21813;49.686;21.766;2023-02-12T02:51:40;99547.53;;;1.35;100.00
35226;BME280;21813;49.686;21.766;2023-02-12T02:56:38;99556.75;;;1.44;100.00
35226;BME280;21813;49.686;21.766;2023-02-12T02:59:12;99555.03;;;1.44;100.00
35226;BME280;21813;49.686;21.766;2023-02-12T03:01:56;99559.28;;;1.45;100.00
35226;BME280;21813;49.686;21.766;2023-02-12T03:04:31;99563.53;;;1.48;100.00
35226;BME280;21813;49.686;21.766;2023-02-12T03:09:43;99569.38;;;1.53;100.00
35226;BME280;21813;49.686;21.766;2023-02-12T03:12:19;99562.63;;;1.49;100.00
35226;BME280;21813;49.686;21.766;2023-02-12T03:14:53;99563.47;;;1.49;100.00
35226;BME280;21813;49.686;21.766;2023-02-12T03:17:30;99571.16;;;1.51;100.00
35226;BME280;21813;49.686;21.766;2023-02-12T03:20:19;99585.69;;;1.52;100.00
35226;BME280;21813;49.686;21.766;2023-02-12T03:22:51;99578.03;;;1.49;100.00
35226;BME280;21813;49.686;21.766;2023-02-12T03:25:24;99604.53;;;1.52;100.00
35226;BME280;21813;49.686;21.766;2023-02-12T03:30:47;99606.25;;;1.52;100.00
35226;BME280;21813;49.686;21.766;2023-02-12T03:33:23;99618.19;;;1.53;100.00
35226;BME280;21813;49.686;21.766;2023-02-12T03:39:01;99642.22;;;1.52;100.00
35226;BME280;21813;49.686;21.766;2023-02-12T03:42:15;99635.38;;;1.51;100.00
35226;BME280;21813;49.686;21.766;2023-02-12T03:51:00;99655.78;;;1.57;100.00
35226;BME280;21813;49.686;21.766;2023-02-12T03:53:28;99652.44;;;1.53;100.00
35226;BME280;21813;49.686;21.766;2023-02-12T03:56:04;99656.69;;;1.54;100.00
35226;BME280;21813;49.686;21.766;2023-02-12T03:58:33;99654.16;;;1.53;100.00
35226;BME280;21813;49.686;21.766;2023-02-12T04:01:01;99659.25;;;1.56;100.00
35226;BME280;21813;49.686;21.766;2023-02-12T04:03:28;99661.84;;;1.54;100.00
35226;BME280;21813;49.686;21.766;2023-02-12T04:05:54;99661.91;;;1.51;100.00
35226;BME280;21813;49.686;21.766;2023-02-12T04:08:20;99679.91;;;1.51;100.00
35226;BME280;21813;49.686;21.766;2023-02-12T04:11:05;99688.38;;;1.55;100.00
35226;BME280;21813;49.686;21.766;2023-02-12T04:13:42;99685.72;;;1.58;100.00
35226;BME280;21813;49.686;21.766;2023-02-12T04:16:21;99687.41;;;1.60;100.00
35226;BME280;21813;49.686;21.766;2023-02-12T04:22:53;99698.44;;;1.64;100.00
35226;BME280;21813;49.686;21.766;2023-02-12T04:26:36;99707.03;;;1.63;100.00
35226;BME280;21813;49.686;21.766;2023-02-12T04:39:34;99721.50;;;1.28;100.00
35226;BME280;21813;49.686;21.766;2023-02-12T04:46:04;99754.16;;;1.20;100.00
35226;BME280;21813;49.686;21.766;2023-02-12T04:48:54;99752.50;;;1.19;100.00
35226;BME280;21813;49.686;21.766;2023-02-12T04:51:55;99752.50;;;1.19;100.00
35226;BME280;21813;49.686;21.766;2023-02-12T04:54:36;99754.22;;;1.17;100.00
35226;BME280;21813;49.686;21.766;2023-02-12T04:57:05;99761.13;;;1.15;100.00
35226;BME280;21813;49.686;21.766;2023-02-12T04:59:31;99765.44;;;1.13;100.00
35226;BME280;21813;49.686;21.766;2023-02-12T05:09:19;99772.44;;;1.05;100.00
35226;BME280;21813;49.686;21.766;2023-02-12T05:11:48;99778.44;;;1.04;100.00
35226;BME280;21813;49.686;21.766;2023-02-12T05:17:24;99780.16;;;1.05;100.00
35226;BME280;21813;49.686;21.766;2023-02-12T05:20:09;99796.41;;;1.06;100.00
35226;BME280;21813;49.686;21.766;2023-02-12T05:26:31;99804.13;;;1.03;100.00
35226;BME280;21813;49.686;21.766;2023-02-12T05:29:42;99806.72;;;1.03;100.00
35226;BME280;21813;49.686;21.766;2023-02-12T05:32:23;99828.34;;;0.88;100.00
35226;BME280;21813;49.686;21.766;2023-02-12T05:35:08;99825.06;;;0.83;100.00
35226;BME280;21813;49.686;21.766;2023-02-12T05:37:52;99832.06;;;0.72;100.00
35226;BME280;21813;49.686;21.766;2023-02-12T05:40:33;99833.94;;;0.64;100.00
35226;BME280;21813;49.686;21.766;2023-02-12T05:43:04;99829.75;;;0.57;100.00
35226;BME280;21813;49.686;21.766;2023-02-12T05:45:56;99846.84;;;0.56;100.00
35226;BME280;21813;49.686;21.766;2023-02-12T05:48:46;99861.47;;;0.53;100.00
35226;BME280;21813;49.686;21.766;2023-02-12T05:51:32;99870.84;;;0.54;100.00
35226;BME280;21813;49.686;21.766;2023-02-12T05:54:00;99871.72;;;0.51;100.00
35226;BME280;21813;49.686;21.766;2023-02-12T05:56:45;99897.44;;;0.50;100.00
35226;BME280;21813;49.686;21.766;2023-02-12T05:59:17;99894.03;;;0.48;100.00
35226;BME280;21813;49.686;21.766;2023-02-12T06:01:47;99906.06;;;0.42;100.00
35226;BME280;21813;49.686;21.766;2023-02-12T06:04:15;99924.84;;;0.44;100.00
35226;BME280;21813;49.686;21.766;2023-02-12T06:06:42;99930.03;;;0.41;100.00
35226;BME280;21813;49.686;21.766;2023-02-12T06:09:10;99938.59;;;0.37;100.00
35226;BME280;21813;49.686;21.766;2023-02-12T06:11:37;99957.47;;;0.36;100.00
35226;BME280;21813;49.686;21.766;2023-02-12T06:14:04;99950.63;;;0.35;100.00
35226;BME280;21813;49.686;21.766;2023-02-12T06:16:33;99948.06;;;0.37;100.00
35226;BME280;21813;49.686;21.766;2023-02-12T06:19:00;99956.63;;;0.33;100.00
35226;BME280;21813;49.686;21.766;2023-02-12T06:21:28;99957.53;;;0.30;100.00
35226;BME280;21813;49.686;21.766;2023-02-12T06:27:51;99980.59;;;0.30;100.00
35226;BME280;21813;49.686;21.766;2023-02-12T06:30:35;99989.16;;;0.28;100.00
35226;BME280;21813;49.686;21.766;2023-02-12T06:33:08;99997.75;;;0.27;100.00
35226;BME280;21813;49.686;21.766;2023-02-12T07:33:53;100059.06;;;0.43;100.00
35226;BME280;21813;49.686;21.766;2023-02-12T07:36:30;100077.03;;;0.43;100.00
35226;BME280;21813;49.686;21.766;2023-02-12T07:38:59;100085.59;;;0.42;100.00
35226;BME280;21813;49.686;21.766;2023-02-12T07:41:32;100077.94;;;0.41;100.00
35226;BME280;21813;49.686;21.766;2023-02-12T07:44:25;100076.19;;;0.43;100.00
35226;BME280;21813;49.686;21.766;2023-02-12T07:46:52;100076.22;;;0.40;100.00
35226;BME280;21813;49.686;21.766;2023-02-12T07:56:41;100090.59;;;0.55;100.00
35226;BME280;21813;49.686;21.766;2023-02-12T07:59:53;100106.78;;;0.60;100.00
35226;BME280;21813;49.686;21.766;2023-02-12T08:03:17;100100.81;;;0.58;100.00
35226;BME280;21813;49.686;21.766;2023-02-12T08:06:27;100097.41;;;0.56;100.00
35226;BME280;21813;49.686;21.766;2023-02-12T08:09:06;100095.78;;;0.50;100.00
35226;BME280;21813;49.686;21.766;2023-02-12T08:11:46;100090.66;;;0.49;100.00
35226;BME280;21813;49.686;21.766;2023-02-12T08:14:27;100097.50;;;0.50;100.00
35226;BME280;21813;49.686;21.766;2023-02-12T08:17:14;100094.06;;;0.48;100.00
35226;BME280;21813;49.686;21.766;2023-02-12T08:19:54;100108.66;;;0.46;100.00
35226;BME280;21813;49.686;21.766;2023-02-12T08:26:20;100104.38;;;0.44;100.00
35226;BME280;21813;49.686;21.766;2023-02-12T08:31:59;100123.16;;;0.47;100.00
35226;BME280;21813;49.686;21.766;2023-02-12T08:34:45;100131.75;;;0.46;100.00
35226;BME280;21813;49.686;21.766;2023-02-12T08:41:53;100126.63;;;0.44;100.00
35226;BME280;21813;49.686;21.766;2023-02-12T08:44:34;100130.03;;;0.44;100.00
35226;BME280;21813;49.686;21.766;2023-02-12T08:47:09;100147.03;;;0.52;100.00
35226;BME280;21813;49.686;21.766;2023-02-12T08:49:34;100139.34;;;0.53;100.00
35226;BME280;21813;49.686;21.766;2023-02-12T08:52:04;100140.19;;;0.55;100.00
35226;BME280;21813;49.686;21.766;2023-02-12T08:59:00;100147.78;;;0.64;100.00
35226;BME280;21813;49.686;21.766;2023-02-12T09:02:17;100164.03;;;0.63;100.00
35226;BME280;21813;49.686;21.766;2023-02-12T09:04:44;100155.47;;;0.61;100.00
35226;BME280;21813;49.686;21.766;2023-02-12T09:07:12;100163.19;;;0.63;100.00
35226;BME280;21813;49.686;21.766;2023-02-12T09:09:40;100170.06;;;0.59;98.47
35226;BME280;21813;49.686;21.766;2023-02-12T09:12:06;100175.25;;;0.55;98.83
35226;BME280;21813;49.686;21.766;2023-02-12T09:14:33;100168.41;;;0.55;98.86
35226;BME280;21813;49.686;21.766;2023-02-12T09:16:59;100176.97;;;0.51;97.19
35226;BME280;21813;49.686;21.766;2023-02-12T09:19:29;100187.22;;;0.54;97.87
35226;BME280;21813;49.686;21.766;2023-02-12T09:21:55;100181.22;;;0.54;96.64
35226;BME280;21813;49.686;21.766;2023-02-12T09:24:24;100189.75;;;0.56;96.47
35226;BME280;21813;49.686;21.766;2023-02-12T09:27:00;100191.50;;;0.55;95.29
35226;BME280;21813;49.686;21.766;2023-02-12T09:29:27;100204.28;;;0.58;96.64
35226;BME280;21813;49.686;21.766;2023-02-12T09:32:01;100209.41;;;0.57;95.96
35226;BME280;21813;49.686;21.766;2023-02-12T09:34:59;100221.38;;;0.58;96.51
35226;BME280;21813;49.686;21.766;2023-02-12T09:37:25;100214.59;;;0.54;96.41
35226;BME280;21813;49.686;21.766;2023-02-12T09:39:51;100222.28;;;0.54;95.51
35226;BME280;21813;49.686;21.766;2023-02-12T09:45:15;100216.34;;;0.50;95.75
35226;BME280;21813;49.686;21.766;2023-02-12T09:50:42;100222.41;;;0.38;94.17
35226;BME280;21813;49.686;21.766;2023-02-12T09:53:17;100221.56;;;0.38;95.15
35226;BME280;21813;49.686;21.766;2023-02-12T09:55:43;100230.13;;;0.37;95.01
35226;BME280;21813;49.686;21.766;2023-02-12T09:58:16;100231.81;;;0.38;95.19
35226;BME280;21813;49.686;21.766;2023-02-12T10:00:47;100242.88;;;0.44;95.00
35226;BME280;21813;49.686;21.766;2023-02-12T10:03:16;100245.41;;;0.48;94.93
35226;BME280;21813;49.686;21.766;2023-02-12T10:05:50;100244.56;;;0.50;94.15
35226;BME280;21813;49.686;21.766;2023-02-12T10:08:40;100248.75;;;0.56;94.95
35226;BME280;21813;49.686;21.766;2023-02-12T10:14:21;100245.28;;;0.61;93.51
35226;BME280;21813;49.686;21.766;2023-02-12T10:17:17;100246.97;;;0.64;93.14
35226;BME280;21813;49.686;21.766;2023-02-12T10:25:52;100246.97;;;0.64;92.18
35226;BME280;21813;49.686;21.766;2023-02-12T10:28:48;100252.97;;;0.63;92.32
35226;BME280;21813;49.686;21.766;2023-02-12T10:31:26;100251.22;;;0.68;91.91
35226;BME280;21813;49.686;21.766;2023-02-12T10:33:54;100254.59;;;0.70;92.29
35226;BME280;21813;49.686;21.766;2023-02-12T10:39:03;100261.44;;;0.74;92.50
35226;BME280;21813;49.686;21.766;2023-02-12T10:41:30;100249.47;;;0.70;92.06
35226;BME280;21813;49.686;21.766;2023-02-12T10:44:02;100261.47;;;0.66;93.61
35226;BME280;21813;49.686;21.766;2023-02-12T10:46:38;100263.19;;;0.67;93.16
35226;BME280;21813;49.686;21.766;2023-02-12T10:49:04;100261.53;;;0.65;92.54
35226;BME280;21813;49.686;21.766;2023-02-12T10:54:32;100259.63;;;0.79;93.92
35226;BME280;21813;49.686;21.766;2023-02-12T10:57:07;100254.44;;;0.85;94.00
35226;BME280;21813;49.686;21.766;2023-02-12T10:59:34;100266.34;;;0.95;91.71
35226;BME280;21813;49.686;21.766;2023-02-12T11:02:01;100271.47;;;0.95;91.60
35226;BME280;21813;49.686;21.766;2023-02-12T11:04:32;100273.16;;;0.96;91.73
35226;BME280;21813;49.686;21.766;2023-02-12T11:07:03;100271.41;;;0.98;91.48
35226;BME280;21813;49.686;21.766;2023-02-12T11:10:00;100267.13;;;0.99;91.16
35226;BME280;21813;49.686;21.766;2023-02-12T11:12:43;100271.38;;;1.04;92.46
35226;BME280;21813;49.686;21.766;2023-02-12T11:18:43;100269.50;;;1.18;91.12
35226;BME280;21813;49.686;21.766;2023-02-12T11:21:12;100280.56;;;1.22;91.20
35226;BME280;21813;49.686;21.766;2023-02-12T11:29:42;100272.69;;;1.39;91.45
35226;BME280;21813;49.686;21.766;2023-02-12T11:32:19;100266.75;;;1.30;91.39
35226;BME280;21813;49.686;21.766;2023-02-12T11:35:26;100265.91;;;1.31;92.37
35226;BME280;21813;49.686;21.766;2023-02-12T11:38:22;100272.81;;;1.26;91.20
35226;BME280;21813;49.686;21.766;2023-02-12T11:40:57;100278.00;;;1.23;92.62
35226;BME280;21813;49.686;21.766;2023-02-12T11:43:24;100271.94;;;1.27;92.61
35226;BME280;21813;49.686;21.766;2023-02-12T11:45:53;100272.81;;;1.26;91.57
35226;BME280;21813;49.686;21.766;2023-02-12T11:48:38;100284.09;;;1.15;93.39
35226;BME280;21813;49.686;21.766;2023-02-12T11:51:08;100272.88;;;1.23;93.17
35226;BME280;21813;49.686;21.766;2023-02-12T11:53:47;100278.81;;;1.25;92.81
35226;BME280;21813;49.686;21.766;2023-02-12T11:56:19;100271.09;;;1.25;90.90
35226;BME280;21813;49.686;21.766;2023-02-12T11:58:48;100278.81;;;1.25;91.87
35226;BME280;21813;49.686;21.766;2023-02-12T12:01:27;100279.66;;;1.27;91.79
35226;BME280;21813;49.686;21.766;2023-02-12T12:04:07;100279.69;;;1.24;92.68
35226;BME280;21813;49.686;21.766;2023-02-12T12:06:43;100280.53;;;1.25;92.89
35226;BME280;21813;49.686;21.766;2023-02-12T12:12:05;100281.38;;;1.25;92.18
35226;BME280;21813;49.686;21.766;2023-02-12T12:14:47;100279.72;;;1.21;90.81
35226;BME280;21813;49.686;21.766;2023-02-12T12:18:03;100276.25;;;1.25;90.77
35226;BME280;21813;49.686;21.766;2023-02-12T12:21:02;100276.16;;;1.33;90.33
35226;BME280;21813;49.686;21.766;2023-02-12T12:23:37;100281.25;;;1.36;88.72
35226;BME280;21813;49.686;21.766;2023-02-12T12:28:45;100270.75;;;1.53;89.07
35226;BME280;21813;49.686;21.766;2023-02-12T12:34:15;100271.72;;;1.46;87.19
35226;BME280;21813;49.686;21.766;2023-02-12T12:36:48;100264.13;;;1.37;88.22
35226;BME280;21813;49.686;21.766;2023-02-12T12:53:12;100262.31;;;1.45;88.47
35226;BME280;21813;49.686;21.766;2023-02-12T13:01:14;100267.44;;;1.45;89.20
35226;BME280;21813;49.686;21.766;2023-02-12T13:04:04;100268.25;;;1.48;89.36
35226;BME280;21813;49.686;21.766;2023-02-12T13:06:55;100267.38;;;1.51;90.29
35226;BME280;21813;49.686;21.766;2023-02-12T13:12:54;100266.47;;;1.56;88.74
35226;BME280;21813;49.686;21.766;2023-02-12T13:15:47;100277.59;;;1.55;87.40
35226;BME280;21813;49.686;21.766;2023-02-12T13:20:51;100283.47;;;1.65;88.91
35226;BME280;21813;49.686;21.766;2023-02-12T13:26:05;100279.19;;;1.64;88.54
35226;BME280;21813;49.686;21.766;2023-02-12T13:28:52;100277.41;;;1.69;89.88
35226;BME280;21813;49.686;21.766;2023-02-12T13:31:22;100288.50;;;1.74;89.07
35226;BME280;21813;49.686;21.766;2023-02-12T13:34:06;100284.16;;;1.76;87.76
35226;BME280;21813;49.686;21.766;2023-02-12T13:36:34;100282.47;;;1.75;88.14
35226;BME280;21813;49.686;21.766;2023-02-12T13:41:47;100284.13;;;1.79;88.97
35226;BME280;21813;49.686;21.766;2023-02-12T13:44:19;100287.50;;;1.83;88.64
35226;BME280;21813;49.686;21.766;2023-02-12T13:46:57;100278.94;;;1.82;88.51
35226;BME280;21813;49.686;21.766;2023-02-12T13:52:00;100296.94;;;1.84;87.23
35226;BME280;21813;49.686;21.766;2023-02-12T13:54:44;100290.06;;;1.84;87.50
35226;BME280;21813;49.686;21.766;2023-02-12T13:57:17;100293.56;;;1.78;86.76
35226;BME280;21813;49.686;21.766;2023-02-12T13:59:49;100286.78;;;1.73;87.93
35226;BME280;21813;49.686;21.766;2023-02-12T14:05:02;100299.66;;;1.71;88.79
35226;BME280;21813;49.686;21.766;2023-02-12T14:07:43;100296.19;;;1.74;87.78
35226;BME280;21813;49.686;21.766;2023-02-12T14:13:06;100306.47;;;1.74;88.86
35226;BME280;21813;49.686;21.766;2023-02-12T14:15:38;100308.19;;;1.73;89.74
35226;BME280;21813;49.686;21.766;2023-02-12T14:18:28;100298.78;;;1.72;89.12
35226;BME280;21813;49.686;21.766;2023-02-12T14:23:43;100292.78;;;1.72;89.53
35226;BME280;21813;49.686;21.766;2023-02-12T14:26:18;100294.47;;;1.74;89.29
35226;BME280;21813;49.686;21.766;2023-02-12T14:28:56;100286.84;;;1.70;89.30
35226;BME280;21813;49.686;21.766;2023-02-12T14:31:35;100294.53;;;1.70;89.36
35226;BME280;21813;49.686;21.766;2023-02-12T14:39:00;100298.09;;;1.60;90.14
35226;BME280;21813;49.686;21.766;2023-02-12T14:41:28;100299.81;;;1.58;89.73
35226;BME280;21813;49.686;21.766;2023-02-12T14:46:59;100286.16;;;1.56;90.50
35226;BME280;21813;49.686;21.766;2023-02-12T14:49:47;100291.31;;;1.56;90.58
35226;BME280;21813;49.686;21.766;2023-02-12T14:52:18;100291.31;;;1.56;91.06
35226;BME280;21813;49.686;21.766;2023-02-12T14:54:55;100290.50;;;1.51;92.29
35226;BME280;21813;49.686;21.766;2023-02-12T14:57:30;100294.78;;;1.49;92.30
35226;BME280;21813;49.686;21.766;2023-02-12T15:00:33;100291.41;;;1.47;92.29
35226;BME280;21813;49.686;21.766;2023-02-12T15:09:54;100288.09;;;1.37;93.31
35226;BME280;21813;49.686;21.766;2023-02-12T15:12:31;100301.81;;;1.38;92.82
35226;BME280;21813;49.686;21.766;2023-02-12T15:15:46;100305.28;;;1.30;92.57
35226;BME280;21813;49.686;21.766;2023-02-12T15:21:24;100315.66;;;1.21;92.79
35226;BME280;21813;49.686;21.766;2023-02-12T15:24:08;100320.81;;;1.21;93.40
35226;BME280;21813;49.686;21.766;2023-02-12T15:26:46;100323.41;;;1.18;93.87
35226;BME280;21813;49.686;21.766;2023-02-12T15:29:41;100315.78;;;1.12;94.53
35226;BME280;21813;49.686;21.766;2023-02-12T15:32:23;100309.00;;;1.05;95.33
35226;BME280;21813;49.686;21.766;2023-02-12T15:34:50;100318.47;;;1.00;95.86
35226;BME280;21813;49.686;21.766;2023-02-12T15:37:22;100327.91;;;0.98;95.64
35226;BME280;21813;49.686;21.766;2023-02-12T15:39:51;100326.28;;;0.91;96.22
35226;BME280;21813;49.686;21.766;2023-02-12T15:42:36;100330.59;;;0.86;96.31
35226;BME280;21813;49.686;21.766;2023-02-12T15:47:33;100325.53;;;0.78;97.04
35226;BME280;21813;49.686;21.766;2023-02-12T15:49:59;100323.06;;;0.69;97.78
35226;BME280;21813;49.686;21.766;2023-02-12T15:52:33;100321.34;;;0.67;98.39
35226;BME280;21813;49.686;21.766;2023-02-12T15:55:02;100313.72;;;0.58;98.31
35226;BME280;21813;49.686;21.766;2023-02-12T15:57:32;100328.28;;;0.56;98.69
35226;BME280;21813;49.686;21.766;2023-02-12T16:00:05;100324.94;;;0.48;98.56
35226;BME280;21813;49.686;21.766;2023-02-12T16:02:33;100319.00;;;0.41;99.14
35226;BME280;21813;49.686;21.766;2023-02-12T16:05:01;100321.63;;;0.36;99.38
35226;BME280;21813;49.686;21.766;2023-02-12T16:07:33;100316.53;;;0.29;100.00
35226;BME280;21813;49.686;21.766;2023-02-12T16:10:00;100322.53;;;0.25;99.77
35226;BME280;21813;49.686;21.766;2023-02-12T16:12:32;100327.69;;;0.20;100.00
35226;BME280;21813;49.686;21.766;2023-02-12T16:15:02;100318.34;;;0.13;100.00
35226;BME280;21813;49.686;21.766;2023-02-12T16:17:33;100326.06;;;0.07;100.00
35226;BME280;21813;49.686;21.766;2023-02-12T16:20:05;100313.34;;;-0.05;100.00
35226;BME280;21813;49.686;21.766;2023-02-12T16:22:42;100325.31;;;-0.07;100.00
35226;BME280;21813;49.686;21.766;2023-02-12T16:25:25;100315.97;;;-0.16;100.00
35226;BME280;21813;49.686;21.766;2023-02-12T16:28:14;100318.56;;;-0.23;100.00
35226;BME280;21813;49.686;21.766;2023-02-12T16:30:43;100332.25;;;-0.24;100.00
35226;BME280;21813;49.686;21.766;2023-02-12T16:38:51;100332.31;;;-0.46;100.00
35226;BME280;21813;49.686;21.766;2023-02-12T16:43:46;100348.59;;;-0.51;100.00
35226;BME280;21813;49.686;21.766;2023-02-12T16:46:13;100343.47;;;-0.59;100.00
35226;BME280;21813;49.686;21.766;2023-02-12T16:48:48;100347.75;;;-0.61;100.00
35226;BME280;21813;49.686;21.766;2023-02-12T16:53:47;100356.28;;;-0.68;100.00
35226;BME280;21813;49.686;21.766;2023-02-12T16:56:20;100358.88;;;-0.74;100.00
35226;BME280;21813;49.686;21.766;2023-02-12T16:58:50;100357.19;;;-0.76;100.00
35226;BME280;21813;49.686;21.766;2023-02-12T17:01:28;100364.88;;;-0.79;100.00
35226;BME280;21813;49.686;21.766;2023-02-12T17:03:56;100364.88;;;-0.87;100.00
35226;BME280;21813;49.686;21.766;2023-02-12T17:06:25;100364.88;;;-0.90;100.00
35226;BME280;21813;49.686;21.766;2023-02-12T17:08:55;100366.59;;;-1.00;100.00
35226;BME280;21813;49.686;21.766;2023-02-12T17:11:21;100363.22;;;-1.03;100.00
35226;BME280;21813;49.686;21.766;2023-02-12T17:13:51;100383.66;;;-1.05;100.00
35226;BME280;21813;49.686;21.766;2023-02-12T17:16:18;100384.50;;;-1.06;100.00
35226;BME280;21813;49.686;21.766;2023-02-12T17:19:00;100376.84;;;-1.13;100.00
35226;BME280;21813;49.686;21.766;2023-02-12T17:21:32;100375.16;;;-1.17;100.00
35226;BME280;21813;49.686;21.766;2023-02-12T17:24:27;100364.09;;;-1.25;100.00
35226;BME280;21813;49.686;21.766;2023-02-12T17:26:56;100379.44;;;-1.25;100.00
35226;BME280;21813;49.686;21.766;2023-02-12T17:29:24;100364.91;;;-1.33;100.00
35226;BME280;21813;49.686;21.766;2023-02-12T17:31:51;100368.31;;;-1.34;100.00
35226;BME280;21813;49.686;21.766;2023-02-12T17:34:24;100375.16;;;-1.36;100.00
35226;BME280;21813;49.686;21.766;2023-02-12T17:36:50;100368.34;;;-1.40;100.00
35226;BME280;21813;49.686;21.766;2023-02-12T17:39:18;100366.63;;;-1.47;100.00
35226;BME280;21813;49.686;21.766;2023-02-12T17:41:44;100373.44;;;-1.49;100.00
35226;BME280;21813;49.686;21.766;2023-02-12T17:44:11;100381.97;;;-1.48;100.00
35226;BME280;21813;49.686;21.766;2023-02-12T17:46:38;100376.84;;;-1.50;100.00
35226;BME280;21813;49.686;21.766;2023-02-12T17:49:07;100371.72;;;-1.56;100.00
35226;BME280;21813;49.686;21.766;2023-02-12T17:51:32;100373.41;;;-1.61;100.00